This is the latest recevied weather packets stored in our database for station/object EB1TR-13. If no packets are shown the sender has not sent any weather packets the latest 10 day(s).
| Time | Temp. | Humidity | Pressure | Rain* | Wind** | Luminosity | Snow |
|---|---|---|---|---|---|---|---|
| 1787912888 | 18.89° C | 75% | 1017 hPa | 0 mm | - | 0 W/m² | - |
| 1787911988 | 18.33° C | 78% | 1017 hPa | 0 mm | - | 0 W/m² | - |
| 1787911088 | 18.33° C | 78% | 1017 hPa | 0 mm | - | 0 W/m² | - |
| 1787910189 | 16.67° C | 90% | 1017 hPa | 0 mm | - | 0 W/m² | - |
| 1787909289 | 16.11° C | 91% | 1017 hPa | 0 mm | - | 0 W/m² | - |
| 1787908388 | 16.11° C | 93% | 1017 hPa | 0 mm | - | 0 W/m² | - |
| 1787907488 | 15.56° C | 98% | 1017 hPa | 0 mm | - | 0 W/m² | - |
| 1787906588 | 15° C | 98% | 1016 hPa | 0 mm | - | 0 W/m² | - |
| 1787905688 | 14.44° C | 99% | 1016 hPa | 0 mm | - | 0 W/m² | - |
| 1787904788 | 14.44° C | 98% | 1016 hPa | 0 mm | - | 0 W/m² | - |
| 1787903888 | 14.44° C | 99% | 1016 hPa | 0 mm | - | 0 W/m² | - |
| 1787902988 | 13.89° C | 99% | 1015 hPa | 0 mm | - | 0 W/m² | - |
| 1787902088 | 13.89° C | 98% | 1016 hPa | 0 mm | - | 0 W/m² | - |
| 1787901188 | 13.89° C | 98% | 1016 hPa | 0 mm | - | 0 W/m² | - |
| 1787900288 | 13.33° C | 98% | 1016 hPa | 0 mm | - | 0 W/m² | - |
| 1787899389 | 12.78° C | 98% | 1015 hPa | 0 mm | - | 0 W/m² | - |
| 1787898488 | 12.78° C | 98% | 1015 hPa | 0 mm | - | 0 W/m² | - |
| 1787897588 | 12.78° C | 98% | 1015 hPa | 0 mm | - | 0 W/m² | - |
| 1787896688 | 12.78° C | 99% | 1015 hPa | 0 mm | - | 0 W/m² | - |
| 1787895788 | 12.78° C | 98% | 1015 hPa | 0 mm | - | 0 W/m² | - |
| 1787894889 | 12.78° C | 98% | 1015 hPa | 0 mm | - | 0 W/m² | - |
| 1787893988 | 12.78° C | 98% | 1015 hPa | 0 mm | - | 0 W/m² | - |
| 1787893088 | 12.78° C | 97% | 1015 hPa | 0 mm | - | 0 W/m² | - |
| 1787892189 | 12.78° C | 97% | 1015 hPa | 0 mm | - | 0 W/m² | - |
| 1787891288 | 12.78° C | 97% | 1015 hPa | 0 mm | - | 0 W/m² | - |
* Rain latest hour (hover to see other rain measurements)
** Current wind speed in m/s (hover to see current wind gust speed)